Time;durP1;ratioP1;P1;durP2;ratioP2;P2;SDS_P1;SDS_P2;PMS_P1;PMS_P2;Temp;Humidity;BMP_temperature;BMP_pressure;BME280_temperature;BME280_humidity;BME280_pressure;Samples;Min_cycle;Max_cycle;Signal;HPM_P1;HPM_P2
2020/12/09 00:00:34;;;;;;;16.63;12.00;;;7.00;1.00;;;;;;5070463;28;20984;-55
2020/12/09 00:02:59;;;;;;;15.73;11.90;;;6.90;1.00;;;;;;5060191;28;20210;-52
2020/12/09 00:05:25;;;;;;;14.53;10.93;;;6.90;1.00;;;;;;5070681;28;20606;-52
2020/12/09 00:07:51;;;;;;;16.80;12.40;;;6.90;1.00;;;;;;5070435;28;20206;-54
2020/12/09 00:10:16;;;;;;;15.90;12.30;;;6.90;1.00;;;;;;5070106;28;20174;-51
2020/12/09 00:12:42;;;;;;;16.90;12.97;;;6.90;1.00;;;;;;5070750;28;20246;-51
2020/12/09 00:15:09;;;;;;;16.27;12.70;;;6.90;1.00;;;;;;5057221;28;20521;-50
2020/12/09 00:17:35;;;;;;;16.83;12.27;;;6.90;1.00;;;;;;5070641;28;20182;-49
2020/12/09 00:20:01;;;;;;;14.63;11.80;;;6.90;1.00;;;;;;5070454;28;20181;-54
2020/12/09 00:22:27;;;;;;;14.97;11.90;;;6.90;1.00;;;;;;5059054;28;20436;-51
2020/12/09 00:24:52;;;;;;;16.73;12.50;;;6.90;1.00;;;;;;5064518;28;20183;-49
2020/12/09 00:27:18;;;;;;;16.23;12.80;;;6.90;1.00;;;;;;5068431;28;20239;-53
2020/12/09 00:29:44;;;;;;;14.43;11.70;;;6.90;1.00;;;;;;5070389;28;20727;-55
2020/12/09 00:32:10;;;;;;;12.87;11.50;;;6.90;1.00;;;;;;5060181;28;20200;-52
2020/12/09 00:34:35;;;;;;;16.90;12.40;;;6.90;1.00;;;;;;5053662;28;20494;-49
2020/12/09 00:37:01;;;;;;;17.20;12.07;;;7.00;1.00;;;;;;5070310;28;20205;-51
2020/12/09 00:39:27;;;;;;;16.20;11.97;;;7.00;1.00;;;;;;5065844;28;20297;-52
2020/12/09 00:41:52;;;;;;;14.63;11.53;;;7.00;1.00;;;;;;5069086;28;20250;-51
2020/12/09 00:44:18;;;;;;;15.47;11.80;;;7.00;1.00;;;;;;5053647;28;20213;-53
2020/12/09 00:46:43;;;;;;;15.33;11.97;;;6.90;1.00;;;;;;5055765;28;20229;-50
2020/12/09 00:49:09;;;;;;;14.57;12.00;;;6.90;1.00;;;;;;5068999;28;20222;-53
2020/12/09 00:51:35;;;;;;;15.30;11.97;;;6.90;1.00;;;;;;5056657;28;20191;-53
2020/12/09 00:54:00;;;;;;;15.50;11.80;;;6.80;1.00;;;;;;5066986;28;20185;-54
2020/12/09 00:56:26;;;;;;;15.40;11.53;;;6.80;1.00;;;;;;5055927;28;20666;-51
2020/12/09 00:58:51;;;;;;;14.00;10.80;;;6.90;1.00;;;;;;5061560;28;20211;-52
2020/12/09 01:01:17;;;;;;;14.57;11.17;;;6.90;1.00;;;;;;5059000;28;20198;-49
2020/12/09 01:03:43;;;;;;;17.17;12.10;;;6.90;1.00;;;;;;5069196;28;20751;-50
2020/12/09 01:06:09;;;;;;;15.93;11.47;;;6.90;1.00;;;;;;5069281;28;20648;-51
2020/12/09 01:08:35;;;;;;;13.70;11.27;;;6.90;1.00;;;;;;5066818;28;20220;-54
2020/12/09 01:11:02;;;;;;;15.38;11.70;;;6.90;1.00;;;;;;5067600;28;20466;-53
2020/12/09 01:13:28;;;;;;;14.05;10.57;;;6.90;1.00;;;;;;5062905;28;20189;-55
2020/12/09 01:15:53;;;;;;;15.13;11.37;;;6.90;1.00;;;;;;5068788;28;20191;-53
2020/12/09 01:18:19;;;;;;;12.40;10.70;;;6.90;1.00;;;;;;5064159;28;20210;-50
2020/12/09 01:20:45;;;;;;;14.70;11.03;;;6.90;1.00;;;;;;5065071;28;20202;-54
2020/12/09 01:23:11;;;;;;;13.37;11.60;;;6.90;1.00;;;;;;5069501;28;20941;-51
2020/12/09 01:25:37;;;;;;;14.50;10.97;;;6.90;1.00;;;;;;5050376;28;20189;-54
2020/12/09 01:28:03;;;;;;;14.80;12.07;;;6.90;1.00;;;;;;5063185;28;20268;-55
2020/12/09 01:30:30;;;;;;;16.08;12.10;;;6.90;1.00;;;;;;5052097;28;20424;-55
2020/12/09 01:32:56;;;;;;;13.27;11.00;;;6.90;1.00;;;;;;5058419;28;20195;-49
2020/12/09 01:35:22;;;;;;;13.52;11.13;;;6.90;1.00;;;;;;5067364;28;20676;-53
2020/12/09 01:37:49;;;;;;;14.07;11.77;;;6.90;1.00;;;;;;5068001;28;20185;-55
2020/12/09 01:40:15;;;;;;;13.38;11.02;;;7.00;1.00;;;;;;5063888;28;20304;-55
2020/12/09 01:42:41;;;;;;;14.30;11.20;;;7.00;1.00;;;;;;5062977;28;20193;-53
2020/12/09 01:45:07;;;;;;;13.33;11.03;;;6.90;1.00;;;;;;5065529;28;20202;-50
2020/12/09 01:47:32;;;;;;;13.30;10.60;;;6.90;1.00;;;;;;5065335;28;20182;-51
2020/12/09 01:49:59;;;;;;;14.37;12.00;;;7.00;1.00;;;;;;5068827;28;20337;-55
2020/12/09 01:52:26;;;;;;;14.15;11.35;;;6.90;1.00;;;;;;5068124;28;20190;-54
2020/12/09 01:54:55;;;;;;;13.30;10.73;;;6.90;1.00;;;;;;5055639;28;20537;-54
2020/12/09 01:57:22;;;;;;;14.05;11.35;;;7.00;1.00;;;;;;5059443;28;20201;-52
2020/12/09 01:59:48;;;;;;;13.52;10.85;;;7.00;1.00;;;;;;5068761;28;20290;-50
2020/12/09 02:02:15;;;;;;;13.63;10.90;;;7.00;1.00;;;;;;5057727;28;20196;-51
2020/12/09 02:04:41;;;;;;;13.05;10.75;;;7.00;1.00;;;;;;5068513;28;20563;-53
2020/12/09 02:07:07;;;;;;;14.90;12.25;;;7.00;1.00;;;;;;5062245;28;20179;-51
2020/12/09 02:09:33;;;;;;;12.23;10.87;;;7.00;1.00;;;;;;5062657;28;20216;-55
2020/12/09 02:11:59;;;;;;;13.27;10.63;;;7.00;1.00;;;;;;5065688;28;20429;-54
2020/12/09 02:14:25;;;;;;;12.57;10.20;;;7.00;1.00;;;;;;5067025;28;20194;-54
2020/12/09 02:16:53;;;;;;;12.32;10.07;;;7.00;1.00;;;;;;5062426;28;20272;-53
2020/12/09 02:19:19;;;;;;;12.00;9.80;;;7.00;1.00;;;;;;5063458;28;20170;-54
2020/12/09 02:21:45;;;;;;;12.43;10.37;;;7.00;1.00;;;;;;5069109;28;20766;-52
2020/12/09 02:24:11;;;;;;;12.13;10.17;;;7.10;1.00;;;;;;5066738;28;20436;-55
2020/12/09 02:26:42;;;;;;;12.63;10.13;;;7.10;1.00;;;;;;5068118;28;20439;-48
2020/12/09 02:29:08;;;;;;;12.50;10.40;;;7.10;1.00;;;;;;5068787;28;21325;-53
2020/12/09 02:31:34;;;;;;;11.77;10.17;;;7.10;1.00;;;;;;5068661;28;20237;-50
2020/12/09 02:33:59;;;;;;;13.47;10.30;;;7.10;1.00;;;;;;5067563;28;20433;-54
2020/12/09 02:36:25;;;;;;;12.77;10.67;;;7.10;1.00;;;;;;5068363;28;20205;-53
2020/12/09 02:38:51;;;;;;;11.50;10.10;;;7.10;1.00;;;;;;5058935;28;20198;-53
2020/12/09 02:41:16;;;;;;;12.60;10.67;;;7.10;1.00;;;;;;5061221;28;20237;-49
2020/12/09 02:43:42;;;;;;;14.60;11.40;;;7.10;1.00;;;;;;5058395;28;20456;-55
2020/12/09 02:46:08;;;;;;;13.13;11.00;;;7.10;1.00;;;;;;5068792;28;20742;-54
2020/12/09 02:48:33;;;;;;;12.90;10.93;;;7.00;1.00;;;;;;5057032;28;20225;-51
2020/12/09 02:50:59;;;;;;;12.63;10.47;;;7.00;1.00;;;;;;5065281;28;20193;-55
2020/12/09 02:53:24;;;;;;;13.23;10.70;;;7.00;1.00;;;;;;5069266;28;20215;-54
2020/12/09 02:55:50;;;;;;;13.73;11.50;;;7.10;1.00;;;;;;5067751;28;20181;-52
2020/12/09 02:58:16;;;;;;;13.13;10.50;;;7.10;1.00;;;;;;5066625;28;20237;-52
2020/12/09 03:00:41;;;;;;;15.97;11.70;;;7.10;1.00;;;;;;5068006;28;20217;-54
2020/12/09 03:03:07;;;;;;;14.03;11.63;;;7.10;1.00;;;;;;5068029;28;20186;-50
2020/12/09 03:05:32;;;;;;;12.67;10.97;;;7.10;1.00;;;;;;5068614;28;20794;-50
2020/12/09 03:08:01;;;;;;;14.80;11.80;;;7.10;1.00;;;;;;5062644;28;20196;-51
2020/12/09 03:10:27;;;;;;;12.07;10.50;;;7.10;1.00;;;;;;5066783;28;20269;-49
2020/12/09 03:12:52;;;;;;;14.80;12.30;;;7.10;1.00;;;;;;5065681;28;20727;-52
2020/12/09 03:15:18;;;;;;;14.43;11.57;;;7.20;1.00;;;;;;5069159;28;20182;-54
2020/12/09 03:17:43;;;;;;;13.97;11.50;;;7.20;1.00;;;;;;5071926;28;20261;-54
2020/12/09 03:20:09;;;;;;;14.07;11.33;;;7.20;1.00;;;;;;5070220;28;20189;-51
2020/12/09 03:22:34;;;;;;;13.73;11.47;;;7.20;1.00;;;;;;5058389;28;20224;-52
2020/12/09 03:25:00;;;;;;;13.73;12.20;;;7.20;1.00;;;;;;5061888;28;20188;-54
2020/12/09 03:27:26;;;;;;;13.43;11.77;;;7.10;1.00;;;;;;5064620;28;20198;-52
2020/12/09 03:29:52;;;;;;;15.90;11.43;;;7.20;1.00;;;;;;5053289;28;20211;-49
2020/12/09 03:32:18;;;;;;;14.05;11.18;;;7.20;1.00;;;;;;5067732;28;20800;-52
2020/12/09 03:34:44;;;;;;;14.80;11.57;;;7.10;1.00;;;;;;5064771;28;20189;-51
2020/12/09 03:37:09;;;;;;;12.27;10.60;;;7.10;1.00;;;;;;5063804;28;20189;-54
2020/12/09 03:39:35;;;;;;;12.50;10.87;;;7.10;1.00;;;;;;5066775;28;20183;-53
2020/12/09 03:42:01;;;;;;;14.03;11.83;;;7.20;1.00;;;;;;5052866;28;20694;-53
2020/12/09 03:44:26;;;;;;;15.87;11.93;;;7.20;1.00;;;;;;5063580;28;20181;-50
2020/12/09 03:46:52;;;;;;;12.57;10.73;;;7.20;1.00;;;;;;5070016;28;20182;-53
2020/12/09 03:49:17;;;;;;;13.90;11.00;;;7.20;1.00;;;;;;5070732;28;20212;-50
2020/12/09 03:51:43;;;;;;;14.90;11.20;;;7.20;1.00;;;;;;5066488;28;20182;-52
2020/12/09 03:54:09;;;;;;;12.63;10.30;;;7.20;1.00;;;;;;5058613;28;20384;-53
2020/12/09 03:56:34;;;;;;;16.03;11.70;;;7.20;1.00;;;;;;5066070;28;20538;-55
2020/12/09 03:59:00;;;;;;;12.70;10.63;;;7.20;1.00;;;;;;5067499;28;20445;-50
2020/12/09 04:01:26;;;;;;;12.60;10.80;;;7.20;1.00;;;;;;5068188;28;20188;-55
2020/12/09 04:03:51;;;;;;;13.80;11.30;;;7.20;1.00;;;;;;5071147;28;20615;-52
2020/12/09 04:06:17;;;;;;;14.00;10.63;;;7.20;1.00;;;;;;5070775;28;20182;-53
2020/12/09 04:08:42;;;;;;;12.93;11.07;;;7.20;1.00;;;;;;5068654;28;20206;-53
2020/12/09 04:11:08;;;;;;;13.20;11.03;;;7.20;1.00;;;;;;5068646;28;20178;-52
2020/12/09 04:13:33;;;;;;;13.23;11.00;;;7.20;1.00;;;;;;5063830;28;20757;-52
2020/12/09 04:15:59;;;;;;;13.60;10.80;;;7.30;1.00;;;;;;5056027;28;20184;-50
2020/12/09 04:18:25;;;;;;;11.73;10.50;;;7.30;1.00;;;;;;5067696;28;20190;-55
2020/12/09 04:20:50;;;;;;;14.03;11.10;;;7.30;1.00;;;;;;5057682;28;20186;-50
2020/12/09 04:23:16;;;;;;;12.50;11.10;;;7.40;1.00;;;;;;5069545;28;20186;-53
2020/12/09 04:25:42;;;;;;;11.20;10.10;;;7.30;1.00;;;;;;5070139;28;20265;-52
2020/12/09 04:28:07;;;;;;;12.30;10.73;;;7.30;1.00;;;;;;5066618;28;20195;-51
2020/12/09 04:30:33;;;;;;;13.10;11.10;;;7.30;1.00;;;;;;5060257;28;20620;-53
2020/12/09 04:32:58;;;;;;;12.43;10.63;;;7.30;1.00;;;;;;5070533;28;20172;-53
2020/12/09 04:35:25;;;;;;;14.30;11.03;;;7.20;1.00;;;;;;5070718;28;20183;-55
2020/12/09 04:37:55;;;;;;;11.43;10.20;;;7.30;1.00;;;;;;5061707;28;20189;-54
2020/12/09 04:40:23;;;;;;;13.10;11.00;;;7.30;1.00;;;;;;5070109;28;20229;-52
2020/12/09 04:42:57;;;;;;;12.15;10.40;;;7.30;1.00;;;;;;5067539;28;20507;-49
2020/12/09 04:45:23;;;;;;;13.40;10.40;;;7.30;1.00;;;;;;5070112;28;20177;-48
2020/12/09 04:48:06;;;;;;;13.03;11.10;;;7.30;1.00;;;;;;5070171;28;20193;-50
2020/12/09 04:50:50;;;;;;;12.77;10.65;;;7.30;1.00;;;;;;5069284;28;20210;-51
2020/12/09 04:53:27;;;;;;;11.80;10.05;;;7.30;1.00;;;;;;5061456;28;20220;-51
2020/12/09 04:55:55;;;;;;;12.80;10.30;;;7.30;1.00;;;;;;5080814;28;20288;-51
2020/12/09 04:58:43;;;;;;;10.95;9.65;;;7.30;1.00;;;;;;5063141;28;20173;-48
2020/12/09 05:01:10;;;;;;;12.88;9.80;;;7.30;1.00;;;;;;5069462;28;20251;-52
2020/12/09 05:03:47;;;;;;;12.00;10.77;;;7.30;1.00;;;;;;5069596;28;20189;-55
2020/12/09 05:06:15;;;;;;;13.35;11.02;;;7.40;1.00;;;;;;5071640;28;20202;-54
2020/12/09 05:08:55;;;;;;;12.00;10.70;;;7.50;1.00;;;;;;5066988;28;20528;-54
2020/12/09 05:11:26;;;;;;;11.60;10.07;;;7.50;1.00;;;;;;5066522;28;20189;-52
2020/12/09 05:13:56;;;;;;;11.82;10.00;;;7.50;1.00;;;;;;5062713;28;20890;-53
2020/12/09 05:16:23;;;;;;;11.43;9.60;;;7.40;1.00;;;;;;5069203;28;20637;-52
2020/12/09 05:18:55;;;;;;;12.00;10.70;;;7.40;1.00;;;;;;5069582;28;20189;-55
2020/12/09 05:21:25;;;;;;;13.73;10.30;;;7.40;1.00;;;;;;5062599;28;20186;-49
2020/12/09 05:23:54;;;;;;;11.50;10.32;;;7.40;1.00;;;;;;5053988;28;20225;-50
2020/12/09 05:26:25;;;;;;;13.15;10.10;;;7.40;1.00;;;;;;5045694;28;20640;-53
2020/12/09 05:29:22;;;;;;;11.48;9.65;;;7.50;1.00;;;;;;5060442;28;20329;-54
2020/12/09 05:31:50;;;;;;;11.85;9.57;;;7.50;1.00;;;;;;5008523;28;20210;-52
2020/12/09 05:34:21;;;;;;;11.38;9.80;;;7.50;1.00;;;;;;5056470;28;20175;-50
2020/12/09 05:36:52;;;;;;;11.65;8.80;;;7.50;1.00;;;;;;5054966;28;20175;-50
2020/12/09 05:39:18;;;;;;;11.82;10.23;;;7.50;1.00;;;;;;5048922;28;20175;-49
2020/12/09 05:41:44;;;;;;;11.18;9.98;;;7.60;1.00;;;;;;5059901;28;20225;-50
2020/12/09 05:44:10;;;;;;;11.13;9.67;;;7.50;1.00;;;;;;5067872;28;20819;-50
2020/12/09 05:46:55;;;;;;;13.63;10.97;;;7.50;1.00;;;;;;5069273;28;20717;-50
2020/12/09 05:49:22;;;;;;;12.73;10.65;;;7.50;1.00;;;;;;5061030;28;20228;-54
2020/12/09 05:52:03;;;;;;;13.35;10.35;;;7.40;1.00;;;;;;5050826;28;20195;-51
2020/12/09 05:54:28;;;;;;;13.73;10.30;;;7.40;1.00;;;;;;5068302;28;20259;-53
2020/12/09 05:56:56;;;;;;;12.10;10.23;;;7.40;1.00;;;;;;5068855;28;20232;-56
2020/12/09 05:59:37;;;;;;;12.20;10.30;;;7.40;1.00;;;;;;5069433;28;20202;-54
2020/12/09 06:02:14;;;;;;;10.70;9.60;;;7.50;1.00;;;;;;5058788;28;20187;-53
2020/12/09 06:04:46;;;;;;;12.40;10.98;;;7.50;1.00;;;;;;5068596;28;20182;-49
2020/12/09 06:07:11;;;;;;;12.93;10.60;;;7.50;1.00;;;;;;5066993;28;20194;-53
2020/12/09 06:09:38;;;;;;;12.80;9.97;;;7.50;1.00;;;;;;5068947;28;20272;-50
2020/12/09 06:12:05;;;;;;;16.63;10.27;;;7.50;1.00;;;;;;5053194;28;20480;-54
2020/12/09 06:14:31;;;;;;;11.38;9.88;;;7.50;1.00;;;;;;5061123;28;20211;-50
2020/12/09 06:16:57;;;;;;;12.23;9.95;;;7.50;1.00;;;;;;5048913;28;20250;-51
2020/12/09 06:19:25;;;;;;;12.77;10.30;;;7.50;1.00;;;;;;5060949;28;20176;-55
2020/12/09 06:21:57;;;;;;;11.15;9.00;;;7.50;1.00;;;;;;5068640;28;20236;-50
2020/12/09 06:24:23;;;;;;;10.77;9.68;;;7.50;1.00;;;;;;5069010;28;20636;-49
2020/12/09 06:26:50;;;;;;;11.32;10.13;;;7.60;1.00;;;;;;5067975;28;20270;-51
2020/12/09 06:29:34;;;;;;;11.85;9.50;;;7.50;1.00;;;;;;5068378;28;20210;-49
2020/12/09 06:32:01;;;;;;;13.68;11.40;;;7.50;1.00;;;;;;5065486;28;20192;-50
2020/12/09 06:34:27;;;;;;;16.48;14.88;;;7.50;1.00;;;;;;5048938;28;20197;-52
2020/12/09 06:37:12;;;;;;;14.30;12.80;;;7.50;1.00;;;;;;5052880;28;20182;-54
2020/12/09 06:39:39;;;;;;;14.10;9.50;;;7.60;1.00;;;;;;5071177;28;20660;-50
2020/12/09 06:42:08;;;;;;;13.00;10.55;;;7.60;1.00;;;;;;5070555;28;20232;-52
2020/12/09 06:44:46;;;;;;;24.50;22.20;;;7.60;1.00;;;;;;5084182;28;20227;-53
2020/12/09 06:47:12;;;;;;;11.02;9.82;;;7.60;1.00;;;;;;5054197;28;20181;-52
2020/12/09 06:49:39;;;;;;;10.47;9.27;;;7.60;1.00;;;;;;5068598;28;20252;-50
2020/12/09 06:52:11;;;;;;;10.20;8.93;;;7.50;1.00;;;;;;5074106;28;20181;-53
2020/12/09 06:54:45;;;;;;;12.25;10.95;;;7.50;1.00;;;;;;5082848;28;20264;-54
2020/12/09 06:57:15;;;;;;;10.00;9.00;;;7.50;1.00;;;;;;5070320;28;20580;-51
2020/12/09 06:59:42;;;;;;;10.60;9.50;;;7.60;1.00;;;;;;5071991;28;20186;-53
2020/12/09 07:02:08;;;;;;;11.48;10.05;;;7.60;1.00;;;;;;5072063;28;20224;-52
2020/12/09 07:04:52;;;;;;;9.93;8.93;;;7.60;1.00;;;;;;5070437;28;20227;-49
2020/12/09 07:07:27;;;;;;;12.43;11.13;;;7.60;1.00;;;;;;5058527;28;20689;-50
2020/12/09 07:09:53;;;;;;;10.70;9.00;;;7.60;1.00;;;;;;5064299;28;20914;-53
2020/12/09 07:12:20;;;;;;;13.70;12.30;;;7.50;1.00;;;;;;5062478;28;20201;-52
2020/12/09 07:14:50;;;;;;;10.50;8.98;;;7.50;1.00;;;;;;5070250;28;20183;-53
2020/12/09 07:17:16;;;;;;;10.70;9.60;;;7.60;1.00;;;;;;5065677;28;20187;-48
2020/12/09 07:19:42;;;;;;;12.07;9.77;;;7.50;1.00;;;;;;5051453;28;20190;-51
2020/12/09 07:22:08;;;;;;;13.47;10.00;;;7.50;1.00;;;;;;5071585;28;20195;-51
2020/12/09 07:24:34;;;;;;;11.50;9.30;;;7.50;1.00;;;;;;5070589;28;20548;-52
2020/12/09 07:26:59;;;;;;;11.67;9.87;;;7.50;1.00;;;;;;5071297;28;20186;-50
2020/12/09 07:29:25;;;;;;;9.83;8.80;;;7.60;1.00;;;;;;5071788;28;20232;-51
2020/12/09 07:31:54;;;;;;;11.50;9.60;;;7.60;1.00;;;;;;5068274;28;20182;-52
2020/12/09 07:34:21;;;;;;;10.20;9.05;;;7.50;1.00;;;;;;5071235;28;20261;-53
2020/12/09 07:36:50;;;;;;;10.37;8.23;;;7.50;1.00;;;;;;5071063;28;20261;-55
2020/12/09 07:39:29;;;;;;;11.18;9.27;;;7.40;1.00;;;;;;5071041;28;20192;-56
2020/12/09 07:41:58;;;;;;;12.88;9.15;;;7.50;1.00;;;;;;5071264;28;21038;-53
2020/12/09 07:44:24;;;;;;;10.55;8.95;;;7.40;1.00;;;;;;5071004;28;20183;-57
2020/12/09 07:46:54;;;;;;;10.88;9.40;;;7.50;1.00;;;;;;5070762;28;20193;-56
2020/12/09 07:49:20;;;;;;;10.07;9.05;;;7.50;1.00;;;;;;5070904;28;20201;-57
2020/12/09 07:51:46;;;;;;;10.23;8.70;;;7.50;1.00;;;;;;5069691;28;20199;-52
2020/12/09 07:54:14;;;;;;;10.63;9.48;;;7.50;1.00;;;;;;5070741;28;20428;-54
2020/12/09 07:56:40;;;;;;;10.48;8.90;;;7.50;1.00;;;;;;5059740;28;20186;-53
2020/12/09 07:59:06;;;;;;;9.82;8.82;;;7.50;1.00;;;;;;5069086;28;20178;-54
2020/12/09 08:01:32;;;;;;;10.57;8.97;;;7.60;1.00;;;;;;5066962;28;20270;-58
2020/12/09 08:03:57;;;;;;;9.43;8.43;;;7.60;1.00;;;;;;5067314;28;20535;-51
2020/12/09 08:06:23;;;;;;;9.73;8.73;;;7.50;1.00;;;;;;5070672;28;20219;-54
2020/12/09 08:08:52;;;;;;;10.23;9.03;;;7.50;1.00;;;;;;5070558;28;20563;-54
2020/12/09 08:11:17;;;;;;;11.70;9.40;;;7.50;1.00;;;;;;5070753;28;20178;-56
2020/12/09 08:13:43;;;;;;;10.07;8.90;;;7.50;1.00;;;;;;5066755;28;20725;-57
2020/12/09 08:16:14;;;;;;;10.93;9.07;;;7.50;1.00;;;;;;5069956;28;20214;-55
2020/12/09 08:18:41;;;;;;;9.73;8.73;;;7.50;1.00;;;;;;5070435;28;20425;-53
2020/12/09 08:21:11;;;;;;;9.57;8.53;;;7.60;1.00;;;;;;5065844;28;21060;-49
2020/12/09 08:23:46;;;;;;;10.20;9.10;;;7.60;1.00;;;;;;5068273;28;20845;-54
2020/12/09 08:26:12;;;;;;;10.00;9.00;;;7.60;1.00;;;;;;5062876;28;20194;-52
2020/12/09 08:28:44;;;;;;;11.30;9.07;;;7.60;1.00;;;;;;5068446;28;20476;-53
2020/12/09 08:31:14;;;;;;;9.20;8.27;;;7.60;1.00;;;;;;5067644;28;20463;-54
2020/12/09 08:33:40;;;;;;;10.68;8.95;;;7.70;1.00;;;;;;5066663;28;20206;-51
2020/12/09 08:36:10;;;;;;;9.47;8.40;;;7.70;1.00;;;;;;5066695;28;20175;-51
2020/12/09 08:38:46;;;;;;;8.73;7.82;;;7.80;1.00;;;;;;5065820;28;20188;-54
2020/12/09 08:41:15;;;;;;;8.07;7.30;;;7.80;1.00;;;;;;5059880;28;20227;-53
2020/12/09 08:43:43;;;;;;;8.85;7.57;;;7.70;1.00;;;;;;5069163;28;20669;-52
2020/12/09 08:46:10;;;;;;;9.40;8.10;;;7.70;1.00;;;;;;5069400;28;20270;-54
2020/12/09 08:48:38;;;;;;;9.15;8.15;;;7.70;1.00;;;;;;5069172;28;20209;-51
2020/12/09 08:51:05;;;;;;;8.30;7.35;;;7.60;1.00;;;;;;5062255;28;20187;-53
2020/12/09 08:53:30;;;;;;;11.07;8.32;;;7.70;1.00;;;;;;5068868;28;20732;-51
2020/12/09 08:55:56;;;;;;;10.37;7.57;;;7.70;1.00;;;;;;5069404;28;20265;-53
2020/12/09 08:58:22;;;;;;;9.63;8.63;;;7.70;1.00;;;;;;5069150;28;20415;-55
2020/12/09 09:00:48;;;;;;;8.00;7.20;;;7.70;1.00;;;;;;5067834;28;20206;-59
2020/12/09 09:03:18;;;;;;;8.77;7.87;;;7.70;1.00;;;;;;5068698;28;20181;-50
2020/12/09 09:05:45;;;;;;;8.30;7.50;;;7.70;1.00;;;;;;5068980;28;20264;-53
2020/12/09 09:08:12;;;;;;;7.95;7.20;;;7.70;1.00;;;;;;5068755;28;20423;-51
2020/12/09 09:10:39;;;;;;;9.05;7.65;;;7.60;1.00;;;;;;5068463;28;20171;-55
2020/12/09 09:13:05;;;;;;;9.82;7.68;;;7.60;1.00;;;;;;5069068;28;20187;-54
2020/12/09 09:15:34;;;;;;;8.27;7.10;;;7.60;1.00;;;;;;5067970;28;20196;-58
2020/12/09 09:18:01;;;;;;;7.65;6.90;;;7.60;1.00;;;;;;5065869;28;20499;-55
2020/12/09 09:20:28;;;;;;;11.20;8.02;;;7.60;1.00;;;;;;5067488;28;20179;-52
2020/12/09 09:22:53;;;;;;;8.48;7.57;;;7.60;1.00;;;;;;5068302;28;20513;-54
2020/12/09 09:25:20;;;;;;;9.17;7.53;;;7.60;1.00;;;;;;5068822;28;20193;-52
2020/12/09 09:27:47;;;;;;;8.45;7.45;;;7.70;1.00;;;;;;5066561;28;20182;-56
2020/12/09 09:30:13;;;;;;;7.80;7.00;;;7.70;1.00;;;;;;5068179;28;20208;-55
2020/12/09 09:32:38;;;;;;;10.17;7.20;;;7.70;1.00;;;;;;5066498;28;20183;-57
2020/12/09 09:35:05;;;;;;;9.00;7.10;;;7.70;1.00;;;;;;5068683;28;20282;-50
2020/12/09 09:37:31;;;;;;;8.65;7.15;;;7.70;1.00;;;;;;5068367;28;20875;-54
2020/12/09 09:39:57;;;;;;;7.70;6.53;;;7.70;1.00;;;;;;5066810;28;20188;-51
2020/12/09 09:42:22;;;;;;;8.03;7.20;;;7.70;1.00;;;;;;5051497;28;20427;-51
2020/12/09 09:44:49;;;;;;;7.90;7.10;;;7.70;1.00;;;;;;5059231;28;20418;-54
2020/12/09 09:47:15;;;;;;;8.32;7.43;;;7.70;1.00;;;;;;5067968;28;20191;-51
2020/12/09 09:49:41;;;;;;;8.53;7.60;;;7.80;1.00;;;;;;5068708;28;20352;-52
2020/12/09 09:52:07;;;;;;;8.40;7.10;;;7.80;1.00;;;;;;5054179;28;20528;-51
2020/12/09 09:54:33;;;;;;;9.70;7.90;;;7.80;1.00;;;;;;5068603;28;20195;-51
2020/12/09 09:56:58;;;;;;;8.98;7.45;;;7.80;1.00;;;;;;5068821;28;20280;-51
2020/12/09 09:59:25;;;;;;;8.77;7.30;;;7.80;1.00;;;;;;5066103;28;20675;-51
2020/12/09 10:01:52;;;;;;;7.43;6.60;;;7.80;1.00;;;;;;5068334;28;20193;-50
2020/12/09 10:04:18;;;;;;;8.20;7.40;;;7.80;1.00;;;;;;5067923;28;20425;-50
2020/12/09 10:06:44;;;;;;;8.23;7.20;;;7.80;1.00;;;;;;5067133;28;20687;-53
2020/12/09 10:09:10;;;;;;;8.50;7.60;;;7.80;1.00;;;;;;5068361;28;20199;-54
2020/12/09 10:11:37;;;;;;;9.10;7.30;;;7.80;1.00;;;;;;5068505;28;20282;-49
2020/12/09 10:14:03;;;;;;;9.38;7.32;;;7.80;1.00;;;;;;5054976;28;20170;-49
2020/12/09 10:16:29;;;;;;;7.60;6.78;;;7.80;1.00;;;;;;5068409;28;20258;-50
2020/12/09 10:18:55;;;;;;;8.10;7.30;;;7.80;1.00;;;;;;5065806;28;20661;-52
2020/12/09 10:21:24;;;;;;;8.57;7.73;;;7.70;1.00;;;;;;5068668;28;20191;-53
2020/12/09 10:23:49;;;;;;;8.30;6.63;;;7.80;1.00;;;;;;5069216;28;20934;-51
2020/12/09 10:26:15;;;;;;;7.20;6.50;;;7.80;1.00;;;;;;5068924;28;20429;-55
2020/12/09 10:28:42;;;;;;;12.60;6.63;;;7.90;1.00;;;;;;5065018;28;20203;-53
2020/12/09 10:31:08;;;;;;;7.25;6.60;;;7.90;99.90;;;;;;5048606;28;20207;-53
2020/12/09 10:33:33;;;;;;;8.47;7.17;;;7.90;99.90;;;;;;5061867;28;20179;-51
2020/12/09 10:35:59;;;;;;;7.53;6.50;;;7.80;99.90;;;;;;5048875;28;20261;-52
2020/12/09 10:38:24;;;;;;;7.73;6.87;;;7.90;99.90;;;;;;5049092;28;20208;-52
2020/12/09 10:40:50;;;;;;;6.80;6.10;;;7.90;99.90;;;;;;5061108;28;20232;-52
2020/12/09 10:43:16;;;;;;;6.77;6.07;;;7.90;99.90;;;;;;5061592;28;20205;-52
2020/12/09 10:45:41;;;;;;;6.90;6.30;;;8.00;99.90;;;;;;5067574;28;20540;-51
2020/12/09 10:48:07;;;;;;;8.40;6.60;;;8.10;99.90;;;;;;5067989;28;20291;-52
2020/12/09 10:50:33;;;;;;;7.17;5.60;;;8.10;99.90;;;;;;5056478;28;20192;-55
2020/12/09 10:52:58;;;;;;;7.70;6.50;;;8.10;99.90;;;;;;5068002;28;20194;-50
2020/12/09 10:55:24;;;;;;;7.30;6.60;;;8.20;76.70;;;;;;5063818;28;20805;-53
2020/12/09 10:57:50;;;;;;;6.77;6.13;;;8.20;46.80;;;;;;5068114;28;20188;-52
2020/12/09 11:00:15;;;;;;;6.63;6.03;;;8.20;75.30;;;;;;5054007;28;20194;-49
2020/12/09 11:02:41;;;;;;;6.13;5.53;;;8.20;59.40;;;;;;5068004;28;20707;-52
2020/12/09 11:05:07;;;;;;;8.70;6.53;;;8.30;90.10;;;;;;5066024;28;20203;-53
2020/12/09 11:07:32;;;;;;;6.90;6.00;;;8.30;12.70;;;;;;5067976;28;20196;-55
2020/12/09 11:09:58;;;;;;;7.33;6.63;;;8.20;1.00;;;;;;5061738;28;20218;-53
2020/12/09 11:12:24;;;;;;;8.00;6.70;;;8.10;99.90;;;;;;5065643;28;20332;-51
2020/12/09 11:14:52;;;;;;;6.27;5.60;;;8.20;99.90;;;;;;5047901;28;20522;-54
2020/12/09 11:17:18;;;;;;;7.50;6.80;;;8.10;99.90;;;;;;5061681;28;20900;-53
2020/12/09 11:19:43;;;;;;;6.67;5.97;;;8.10;99.90;;;;;;5066792;28;20443;-54
2020/12/09 11:22:10;;;;;;;6.30;5.70;;;8.20;99.90;;;;;;5067967;28;20662;-52
2020/12/09 11:24:35;;;;;;;7.47;6.70;;;8.10;99.90;;;;;;5066473;28;20613;-53
2020/12/09 11:27:01;;;;;;;6.30;5.70;;;8.20;99.90;;;;;;5071270;28;20429;-52
2020/12/09 11:29:27;;;;;;;7.63;6.93;;;8.20;68.00;;;;;;5052998;28;20214;-53
2020/12/09 11:31:54;;;;;;;7.00;6.40;;;8.10;40.00;;;;;;5067367;28;20596;-53
2020/12/09 11:34:21;;;;;;;7.13;6.43;;;8.10;42.90;;;;;;5071416;28;20190;-52
2020/12/09 11:36:46;;;;;;;7.87;7.10;;;8.10;1.00;;;;;;5069650;28;20457;-53
2020/12/09 11:39:12;;;;;;;7.40;6.70;;;8.20;1.00;;;;;;5071178;28;20504;-50
2020/12/09 11:41:37;;;;;;;6.57;6.00;;;8.20;1.00;;;;;;5070910;28;20256;-54
2020/12/09 11:44:03;;;;;;;7.60;6.80;;;8.30;1.00;;;;;;5065630;28;20210;-52
2020/12/09 11:46:29;;;;;;;7.83;6.70;;;8.30;1.00;;;;;;5070949;28;20195;-53
2020/12/09 11:48:55;;;;;;;8.47;7.20;;;8.40;99.90;;;;;;5070816;28;20841;-51
2020/12/09 11:51:22;;;;;;;7.43;6.67;;;8.30;99.90;;;;;;5070047;28;20445;-53
2020/12/09 11:53:47;;;;;;;8.23;7.50;;;8.40;99.90;;;;;;5071039;28;20229;-49
2020/12/09 11:56:20;;;;;;;8.07;7.37;;;8.40;44.30;;;;;;5069803;28;21171;-54
2020/12/09 11:58:45;;;;;;;7.83;7.10;;;8.40;99.90;;;;;;5068187;28;20190;-53
2020/12/09 12:01:11;;;;;;;8.90;7.13;;;8.40;1.00;;;;;;5070158;28;20439;-54
2020/12/09 12:03:36;;;;;;;8.30;7.00;;;8.40;72.40;;;;;;5067828;28;20218;-52
2020/12/09 12:06:02;;;;;;;6.90;6.30;;;8.40;1.00;;;;;;5068358;28;20634;-52
2020/12/09 12:08:28;;;;;;;7.47;6.77;;;8.40;1.00;;;;;;5063375;28;20187;-55
2020/12/09 12:10:53;;;;;;;8.13;7.33;;;8.30;1.00;;;;;;5065815;28;20203;-57
2020/12/09 12:13:19;;;;;;;7.67;6.90;;;8.20;1.00;;;;;;5055243;28;20172;-57
2020/12/09 12:15:45;;;;;;;7.60;6.80;;;8.10;1.00;;;;;;5067388;28;20176;-56
2020/12/09 12:18:10;;;;;;;9.17;8.27;;;8.20;1.30;;;;;;5052921;28;20603;-57
2020/12/09 12:20:36;;;;;;;8.77;7.87;;;8.20;99.90;;;;;;5051792;28;20611;-57
2020/12/09 12:23:01;;;;;;;7.80;7.03;;;8.20;99.90;;;;;;5056105;28;20198;-52
2020/12/09 12:25:27;;;;;;;11.10;8.67;;;8.20;99.90;;;;;;5065138;28;20710;-51
2020/12/09 12:27:53;;;;;;;8.27;7.40;;;8.20;99.90;;;;;;5061450;28;20202;-55
2020/12/09 12:30:18;;;;;;;9.53;8.20;;;8.20;93.50;;;;;;5066569;28;20573;-54
2020/12/09 12:32:44;;;;;;;13.67;12.27;;;8.20;1.00;;;;;;5064551;28;20545;-53
2020/12/09 12:35:10;;;;;;;8.90;7.93;;;8.30;24.10;;;;;;5063661;28;20195;-51
2020/12/09 12:37:35;;;;;;;8.83;7.63;;;8.20;1.00;;;;;;5067623;28;20181;-49
2020/12/09 12:40:02;;;;;;;8.53;6.90;;;8.20;38.50;;;;;;5069944;28;20273;-51
2020/12/09 12:42:28;;;;;;;15.77;14.20;;;8.30;27.80;;;;;;5065742;28;20189;-53
2020/12/09 12:44:54;;;;;;;10.00;7.67;;;8.30;1.00;;;;;;5065260;28;20413;-53
2020/12/09 12:47:20;;;;;;;9.00;7.30;;;8.30;1.00;;;;;;5062837;28;20716;-49
2020/12/09 12:49:47;;;;;;;9.17;8.27;;;8.40;1.00;;;;;;5060225;28;20486;-53
2020/12/09 12:52:13;;;;;;;8.13;7.33;;;8.40;1.00;;;;;;5069002;28;20241;-51
2020/12/09 12:54:38;;;;;;;8.53;7.70;;;8.30;99.90;;;;;;5068016;28;20429;-54